Time;durP1;ratioP1;P1;durP2;ratioP2;P2;SDS_P1;SDS_P2;PMS_P1;PMS_P2;Temp;Humidity;BMP_temperature;BMP_pressure;BME280_temperature;BME280_humidity;BME280_pressure;Samples;Min_cycle;Max_cycle;Signal;HPM_P1;HPM_P2
2021/04/16 00:02:20;;;;;;;10.77;7.87;;;5.10;56.40;;;;;;5029541;28;20034;-85
2021/04/16 00:04:46;;;;;;;10.90;7.77;;;5.10;56.60;;;;;;5028804;28;20032;-86
2021/04/16 00:07:12;;;;;;;13.87;8.80;;;5.00;56.50;;;;;;5024649;28;20486;-84
2021/04/16 00:09:37;;;;;;;10.83;6.40;;;5.00;56.60;;;;;;5028567;28;20025;-85
2021/04/16 00:12:06;;;;;;;9.50;6.43;;;4.90;56.40;;;;;;5029787;28;20036;-85
2021/04/16 00:14:32;;;;;;;9.90;6.70;;;4.90;56.60;;;;;;5029985;28;20120;-85
2021/04/16 00:16:58;;;;;;;10.67;6.63;;;5.00;56.50;;;;;;5031856;28;20032;-85
2021/04/16 00:19:24;;;;;;;8.97;6.30;;;4.90;56.40;;;;;;5030925;28;20030;-85
2021/04/16 00:21:50;;;;;;;10.63;6.53;;;4.90;56.20;;;;;;5030293;28;20060;-85
2021/04/16 00:24:16;;;;;;;12.40;6.23;;;4.90;56.30;;;;;;5027308;28;20030;-85
2021/04/16 00:26:43;;;;;;;12.97;6.70;;;4.90;56.20;;;;;;5031169;28;20097;-83
2021/04/16 00:29:09;;;;;;;9.87;7.13;;;4.80;56.30;;;;;;5031419;28;20393;-82
2021/04/16 00:31:36;;;;;;;10.27;7.43;;;4.80;56.40;;;;;;5030640;28;20029;-82
2021/04/16 00:34:03;;;;;;;9.77;7.33;;;4.80;56.40;;;;;;5026028;28;20045;-82
2021/04/16 00:36:30;;;;;;;10.90;7.60;;;4.80;56.50;;;;;;5036029;28;20025;-85
2021/04/16 00:38:56;;;;;;;9.90;6.63;;;4.80;56.60;;;;;;5028810;28;20029;-85
2021/04/16 00:41:26;;;;;;;10.33;6.17;;;4.80;56.60;;;;;;5030465;28;20550;-82
2021/04/16 00:43:52;;;;;;;9.00;6.50;;;4.80;56.60;;;;;;5031689;28;20026;-81
2021/04/16 00:46:29;;;;;;;10.90;7.03;;;4.70;56.40;;;;;;5022978;28;20025;-82
2021/04/16 00:49:00;;;;;;;12.57;7.23;;;4.70;56.50;;;;;;5017905;28;20025;-83
2021/04/16 00:51:30;;;;;;;8.47;6.80;;;4.70;56.50;;;;;;5020562;28;20485;-82
2021/04/16 00:53:58;;;;;;;11.70;7.37;;;4.70;56.40;;;;;;5030936;28;20073;-82
2021/04/16 00:56:24;;;;;;;11.03;7.40;;;4.70;56.40;;;;;;5028287;28;20116;-84
2021/04/16 00:58:50;;;;;;;10.90;7.67;;;4.70;56.40;;;;;;5030866;28;20061;-84
2021/04/16 01:01:16;;;;;;;8.57;7.03;;;4.70;56.40;;;;;;5027057;28;20061;-84
2021/04/16 01:03:42;;;;;;;10.23;7.90;;;4.60;56.40;;;;;;5020667;28;20061;-84
2021/04/16 01:06:10;;;;;;;10.00;7.63;;;4.60;56.50;;;;;;5017977;28;20025;-85
2021/04/16 01:08:36;;;;;;;10.10;6.87;;;4.60;56.50;;;;;;5026096;28;20025;-85
2021/04/16 01:11:04;;;;;;;9.10;7.93;;;4.50;56.50;;;;;;5026436;28;20071;-85
2021/04/16 01:13:30;;;;;;;9.80;7.40;;;4.50;56.70;;;;;;5023697;28;20132;-85
2021/04/16 01:16:03;;;;;;;11.87;7.23;;;4.50;56.70;;;;;;5027915;28;20034;-85
2021/04/16 01:18:36;;;;;;;;;;;4.50;57.10;;;;;;5021624;28;20079;-85
2021/04/16 01:21:06;;;;;;;11.13;7.13;;;4.40;57.10;;;;;;5029532;28;19972;-85
2021/04/16 01:23:35;;;;;;;10.20;7.10;;;4.50;56.60;;;;;;5030589;28;20033;-85
2021/04/16 01:26:04;;;;;;;9.97;7.27;;;4.50;56.60;;;;;;5018822;28;20035;-85
2021/04/16 01:28:29;;;;;;;10.00;7.27;;;4.50;56.50;;;;;;5021790;28;20038;-85
2021/04/16 01:31:00;;;;;;;11.03;7.90;;;4.50;56.60;;;;;;5027593;28;20021;-84
2021/04/16 01:33:29;;;;;;;11.67;7.80;;;4.50;56.70;;;;;;5022734;28;21531;-81
2021/04/16 01:35:55;;;;;;;10.67;7.93;;;4.40;56.70;;;;;;5027383;28;20049;-82
2021/04/16 01:38:21;;;;;;;9.93;7.37;;;4.40;56.60;;;;;;5029344;28;20366;-84
2021/04/16 01:40:48;;;;;;;10.73;7.83;;;4.50;56.70;;;;;;5028876;28;20044;-85
2021/04/16 01:43:25;;;;;;;10.77;7.60;;;4.50;56.40;;;;;;5031015;28;20029;-85
2021/04/16 01:46:15;;;;;;;11.10;8.20;;;4.50;56.40;;;;;;5031758;28;20021;-85
2021/04/16 01:48:45;;;;;;;11.50;7.43;;;4.50;56.40;;;;;;5022500;28;20465;-85
2021/04/16 01:51:15;;;;;;;11.43;7.53;;;4.50;56.50;;;;;;5026738;28;20037;-85
2021/04/16 01:53:41;;;;;;;12.37;8.13;;;4.60;56.50;;;;;;5022361;28;20050;-85
2021/04/16 01:56:08;;;;;;;10.80;7.37;;;4.60;56.20;;;;;;5029528;28;20098;-83
2021/04/16 01:58:34;;;;;;;9.70;7.40;;;4.60;56.10;;;;;;5023925;28;20086;-82
2021/04/16 02:01:00;;;;;;;10.50;7.47;;;4.60;55.80;;;;;;5030831;28;20129;-83
2021/04/16 02:03:26;;;;;;;14.90;7.77;;;4.50;55.80;;;;;;5021979;28;20127;-83
2021/04/16 02:05:52;;;;;;;11.47;7.30;;;4.50;55.80;;;;;;5019370;28;20068;-83
2021/04/16 02:08:19;;;;;;;11.20;6.77;;;4.50;56.00;;;;;;5029895;28;20029;-83
2021/04/16 02:10:45;;;;;;;11.50;7.33;;;4.50;55.90;;;;;;5026203;28;20191;-83
2021/04/16 02:13:12;;;;;;;11.77;8.37;;;4.50;55.80;;;;;;5025524;28;20504;-82
2021/04/16 02:15:38;;;;;;;9.00;6.87;;;4.50;55.70;;;;;;5017930;28;20400;-83
2021/04/16 02:18:05;;;;;;;14.17;7.87;;;4.40;56.40;;;;;;5025070;28;20026;-85
2021/04/16 02:20:31;;;;;;;9.53;7.10;;;4.40;56.00;;;;;;5030202;28;20037;-85
2021/04/16 02:22:57;;;;;;;11.40;8.00;;;4.40;56.10;;;;;;5025117;28;20030;-82
2021/04/16 02:25:23;;;;;;;9.63;7.33;;;4.30;56.70;;;;;;5030735;28;20022;-83
2021/04/16 02:27:49;;;;;;;11.93;7.10;;;4.30;56.30;;;;;;5029345;28;20117;-83
2021/04/16 02:30:23;;;;;;;10.20;7.80;;;4.30;56.80;;;;;;5019697;28;20561;-83
2021/04/16 02:32:49;;;;;;;10.07;7.77;;;4.30;56.20;;;;;;5024884;28;20033;-83
2021/04/16 02:35:16;;;;;;;11.43;7.47;;;4.30;55.90;;;;;;5021948;28;20049;-83
2021/04/16 02:37:42;;;;;;;14.30;7.80;;;4.30;56.10;;;;;;5025606;28;20068;-83
2021/04/16 02:40:10;;;;;;;11.00;7.70;;;4.30;56.00;;;;;;5031055;28;20497;-85
2021/04/16 02:42:36;;;;;;;11.63;7.73;;;4.30;55.90;;;;;;5028033;28;20065;-85
2021/04/16 02:45:03;;;;;;;9.30;6.93;;;4.20;56.10;;;;;;5034086;28;20060;-85
2021/04/16 02:47:28;;;;;;;10.30;7.57;;;4.20;56.20;;;;;;5033419;28;20032;-85
2021/04/16 02:49:54;;;;;;;12.20;8.37;;;4.10;56.20;;;;;;5029410;28;20033;-86
2021/04/16 02:52:20;;;;;;;13.23;7.87;;;4.10;56.30;;;;;;5022451;28;20058;-86
2021/04/16 02:54:45;;;;;;;14.30;8.13;;;4.00;56.10;;;;;;5024313;28;20465;-86
2021/04/16 02:57:11;;;;;;;12.93;8.63;;;3.90;56.50;;;;;;5023360;28;20026;-82
2021/04/16 02:59:37;;;;;;;13.33;8.50;;;3.90;56.50;;;;;;5027028;28;20535;-85
2021/04/16 03:02:04;;;;;;;12.73;8.07;;;3.80;56.50;;;;;;5024313;28;20041;-85
2021/04/16 03:04:30;;;;;;;13.17;8.23;;;3.70;56.50;;;;;;5026688;28;20038;-85
2021/04/16 03:06:56;;;;;;;11.60;8.23;;;3.80;56.60;;;;;;5025986;28;20100;-86
2021/04/16 03:09:21;;;;;;;11.40;7.83;;;3.80;56.70;;;;;;5027709;28;20025;-85
2021/04/16 03:11:47;;;;;;;11.27;8.27;;;3.70;56.60;;;;;;5020633;28;20022;-85
2021/04/16 03:14:13;;;;;;;12.00;7.20;;;3.80;56.80;;;;;;5024068;28;20053;-85
2021/04/16 03:16:39;;;;;;;11.07;7.50;;;3.80;56.60;;;;;;5015820;28;20433;-85
2021/04/16 03:19:06;;;;;;;11.60;8.40;;;3.80;56.50;;;;;;5024623;28;20029;-85
2021/04/16 03:21:32;;;;;;;12.17;7.30;;;3.80;56.50;;;;;;5031769;28;20072;-85
2021/04/16 03:23:58;;;;;;;11.50;7.60;;;3.80;56.60;;;;;;5019358;28;20052;-83
2021/04/16 03:26:26;;;;;;;12.13;8.00;;;3.80;57.10;;;;;;5034412;28;20029;-83
2021/04/16 03:28:58;;;;;;;10.00;7.37;;;3.80;56.60;;;;;;5035261;28;20052;-83
2021/04/16 03:31:26;;;;;;;9.27;7.50;;;3.80;56.60;;;;;;5033685;28;20465;-83
2021/04/16 03:33:52;;;;;;;12.30;7.93;;;3.80;56.60;;;;;;5033647;28;20393;-85
2021/04/16 03:36:18;;;;;;;9.63;7.00;;;3.90;56.70;;;;;;5033687;28;20025;-85
2021/04/16 03:38:44;;;;;;;11.10;8.23;;;3.90;56.50;;;;;;5021291;28;20354;-85
2021/04/16 03:41:10;;;;;;;10.30;7.53;;;3.90;56.30;;;;;;5038849;28;20033;-85
2021/04/16 03:43:36;;;;;;;12.23;8.87;;;4.00;56.20;;;;;;5028708;28;20033;-85
2021/04/16 03:46:02;;;;;;;12.97;7.97;;;4.00;56.00;;;;;;5033287;28;20071;-85
2021/04/16 03:48:29;;;;;;;12.30;8.13;;;4.00;56.20;;;;;;5033429;28;20032;-86
2021/04/16 03:50:54;;;;;;;12.43;8.27;;;4.00;56.20;;;;;;5033605;28;20543;-85
2021/04/16 03:53:22;;;;;;;12.93;8.10;;;4.00;56.10;;;;;;5030536;28;20029;-85
2021/04/16 03:55:47;;;;;;;13.43;8.50;;;3.90;56.10;;;;;;5033632;28;20104;-85
2021/04/16 03:58:13;;;;;;;13.17;8.23;;;3.90;56.00;;;;;;5032981;28;20029;-82
2021/04/16 04:00:40;;;;;;;14.13;7.93;;;3.90;55.90;;;;;;5033136;28;20091;-83
2021/04/16 04:03:10;;;;;;;12.63;8.13;;;3.90;55.90;;;;;;5027349;28;20113;-83
2021/04/16 04:05:36;;;;;;;13.47;8.63;;;3.90;55.90;;;;;;5033269;28;20527;-85
2021/04/16 04:08:03;;;;;;;14.27;8.17;;;3.90;55.70;;;;;;5020249;28;20021;-85
2021/04/16 04:10:37;;;;;;;11.77;8.17;;;4.00;55.60;;;;;;5027346;28;20405;-85
2021/04/16 04:13:08;;;;;;;14.20;8.40;;;3.90;55.50;;;;;;5031193;28;20034;-83
2021/04/16 04:15:33;;;;;;;9.87;7.33;;;4.00;55.50;;;;;;5026218;28;20025;-83
2021/04/16 04:18:00;;;;;;;11.97;7.80;;;3.90;55.30;;;;;;5033108;28;20120;-83
2021/04/16 04:20:29;;;;;;;14.90;7.77;;;3.90;55.20;;;;;;5032994;28;20579;-85
2021/04/16 04:22:56;;;;;;;14.07;8.50;;;3.80;55.30;;;;;;5033635;28;20025;-83
2021/04/16 04:25:24;;;;;;;11.77;8.57;;;3.90;55.30;;;;;;5033761;28;20547;-83
2021/04/16 04:27:51;;;;;;;11.37;8.10;;;3.90;55.10;;;;;;5024327;28;20029;-84
2021/04/16 04:30:20;;;;;;;12.70;8.13;;;3.80;55.20;;;;;;5042850;28;20022;-86
2021/04/16 04:32:46;;;;;;;13.73;8.97;;;3.80;55.20;;;;;;5017507;28;20026;-86
2021/04/16 04:35:12;;;;;;;14.00;8.70;;;3.80;55.30;;;;;;5031189;28;20033;-86
2021/04/16 04:37:38;;;;;;;12.87;8.27;;;3.70;55.40;;;;;;5032162;28;20489;-85
2021/04/16 04:40:08;;;;;;;12.03;7.63;;;3.70;55.50;;;;;;5031215;28;20037;-86
2021/04/16 04:42:34;;;;;;;10.63;8.37;;;3.70;55.60;;;;;;5025235;28;20034;-86
2021/04/16 04:45:01;;;;;;;11.27;8.00;;;3.70;55.50;;;;;;5034040;28;20025;-83
2021/04/16 04:47:27;;;;;;;11.43;8.20;;;3.80;55.50;;;;;;5016183;28;20516;-86
2021/04/16 04:49:52;;;;;;;17.97;8.47;;;3.80;55.30;;;;;;5024502;28;20070;-86
2021/04/16 04:52:31;;;;;;;27.00;11.90;;;3.90;55.30;;;;;;5032214;28;20021;-86
2021/04/16 04:54:59;;;;;;;34.50;12.53;;;3.90;55.30;;;;;;5030496;28;20049;-85
2021/04/16 04:57:26;;;;;;;33.07;14.00;;;3.80;55.40;;;;;;5024605;28;20393;-85
2021/04/16 04:59:52;;;;;;;19.23;11.07;;;3.80;55.60;;;;;;5030043;28;20535;-85
2021/04/16 05:02:20;;;;;;;23.53;11.53;;;3.70;55.80;;;;;;5033822;28;20026;-85
2021/04/16 05:04:46;;;;;;;21.27;11.53;;;3.60;56.20;;;;;;5039656;28;20477;-86
2021/04/16 05:07:12;;;;;;;18.53;10.47;;;3.50;56.50;;;;;;5029700;28;20133;-86
2021/04/16 05:09:38;;;;;;;16.17;9.87;;;3.50;56.80;;;;;;5028297;28;20492;-85
2021/04/16 05:12:04;;;;;;;14.30;9.30;;;3.50;56.80;;;;;;5015178;28;20022;-86
2021/04/16 05:14:31;;;;;;;12.90;8.77;;;3.60;56.90;;;;;;5031826;28;20072;-83
2021/04/16 05:16:57;;;;;;;14.80;9.33;;;3.70;56.70;;;;;;5024580;28;20770;-85
2021/04/16 05:19:23;;;;;;;15.70;8.70;;;3.70;56.40;;;;;;5026962;28;20132;-86
2021/04/16 05:21:54;;;;;;;13.53;8.87;;;3.80;56.20;;;;;;5019467;28;20029;-85
2021/04/16 05:24:20;;;;;;;11.97;8.63;;;3.80;56.00;;;;;;5030820;28;20469;-86
2021/04/16 05:26:46;;;;;;;16.43;9.17;;;3.70;55.90;;;;;;5032273;28;20030;-86
2021/04/16 05:29:13;;;;;;;13.40;9.83;;;3.80;56.00;;;;;;5029403;28;20090;-86
2021/04/16 05:31:40;;;;;;;18.33;9.97;;;3.80;56.10;;;;;;5031534;28;20492;-85
2021/04/16 05:34:06;;;;;;;15.77;10.03;;;3.70;56.30;;;;;;5016261;28;20064;-85
2021/04/16 05:36:33;;;;;;;29.13;14.07;;;3.70;56.30;;;;;;5027020;28;20072;-86
2021/04/16 05:38:59;;;;;;;38.20;22.23;;;3.70;56.50;;;;;;5026725;28;20041;-86
2021/04/16 05:41:25;;;;;;;29.60;19.93;;;3.70;56.60;;;;;;5022958;28;20037;-86
2021/04/16 05:43:51;;;;;;;29.10;19.33;;;3.60;56.60;;;;;;5030020;28;20041;-85
2021/04/16 05:46:18;;;;;;;30.53;18.97;;;3.60;56.60;;;;;;5012294;28;20026;-86
2021/04/16 05:48:44;;;;;;;26.90;17.37;;;3.60;56.60;;;;;;5020281;28;20478;-86
2021/04/16 05:51:10;;;;;;;20.87;12.77;;;3.70;56.60;;;;;;5027519;28;20049;-85
2021/04/16 05:53:37;;;;;;;23.20;15.70;;;3.70;56.70;;;;;;5022466;28;20052;-86
2021/04/16 05:56:05;;;;;;;28.33;15.67;;;3.60;56.70;;;;;;5027043;28;20486;-85
2021/04/16 05:58:30;;;;;;;19.53;13.73;;;3.60;56.50;;;;;;5014287;28;20030;-85
2021/04/16 06:00:56;;;;;;;20.20;13.00;;;3.60;56.40;;;;;;5032960;28;20036;-85
2021/04/16 06:03:22;;;;;;;19.07;13.47;;;3.60;56.40;;;;;;5031493;28;20029;-85
2021/04/16 06:05:48;;;;;;;23.73;14.30;;;3.70;56.50;;;;;;5022514;28;20038;-85
2021/04/16 06:08:24;;;;;;;20.70;12.93;;;3.70;56.40;;;;;;5028880;28;20072;-85
2021/04/16 06:10:50;;;;;;;16.87;10.67;;;3.70;56.60;;;;;;5026016;28;20120;-85
2021/04/16 06:13:16;;;;;;;18.33;11.53;;;3.70;56.60;;;;;;5022746;28;20116;-85
2021/04/16 06:15:42;;;;;;;20.20;13.63;;;3.70;57.20;;;;;;5031437;28;20030;-85
2021/04/16 06:18:08;;;;;;;23.53;14.67;;;3.80;56.70;;;;;;5028719;28;20421;-85
2021/04/16 06:20:34;;;;;;;28.00;16.27;;;3.80;56.70;;;;;;5033254;28;20088;-85
2021/04/16 06:23:00;;;;;;;19.47;11.97;;;3.80;56.70;;;;;;5028446;28;20076;-86
2021/04/16 06:25:31;;;;;;;17.33;12.43;;;3.80;56.50;;;;;;5032800;28;20029;-85
2021/04/16 06:27:58;;;;;;;26.27;13.40;;;3.90;56.40;;;;;;5044825;28;20382;-85
2021/04/16 06:30:24;;;;;;;33.17;16.50;;;3.90;56.10;;;;;;5031201;28;20025;-85
2021/04/16 06:33:13;;;;;;;18.83;12.17;;;3.90;55.90;;;;;;5031306;28;20033;-83
2021/04/16 06:35:45;;;;;;;16.13;10.50;;;4.00;55.70;;;;;;5044307;28;20441;-84
2021/04/16 06:38:11;;;;;;;16.97;11.53;;;4.10;55.50;;;;;;5019998;28;20033;-83
2021/04/16 06:40:37;;;;;;;17.93;10.60;;;4.10;55.30;;;;;;5034380;28;20037;-83
2021/04/16 06:43:03;;;;;;;14.53;10.10;;;4.10;55.30;;;;;;5022523;28;20037;-83
2021/04/16 06:45:31;;;;;;;13.77;9.93;;;4.10;55.20;;;;;;5033242;28;20033;-83
2021/04/16 06:48:01;;;;;;;15.20;10.27;;;4.10;55.00;;;;;;5020815;28;20396;-83
2021/04/16 06:50:34;;;;;;;16.20;10.57;;;4.10;55.00;;;;;;5022889;28;20474;-83
2021/04/16 06:53:09;;;;;;;16.58;10.45;;;4.10;55.10;;;;;;5017796;28;20033;-83
2021/04/16 06:55:54;;;;;;;14.37;9.63;;;4.20;55.00;;;;;;5016827;28;20046;-83
2021/04/16 06:58:55;;;;;;;19.37;11.77;;;4.30;54.90;;;;;;5047440;28;20033;-84
2021/04/16 07:01:33;;;;;;;17.10;10.77;;;4.40;54.70;;;;;;5019832;28;20362;-83
2021/04/16 07:04:21;;;;;;;21.53;11.97;;;4.40;54.50;;;;;;5030467;28;20124;-83
2021/04/16 07:06:50;;;;;;;20.00;12.20;;;4.30;54.60;;;;;;5018603;28;20026;-83
2021/04/16 07:09:21;;;;;;;21.03;12.00;;;4.40;54.60;;;;;;5027139;28;20060;-83
2021/04/16 07:11:53;;;;;;;21.93;12.73;;;4.50;54.60;;;;;;5028105;28;20086;-83
2021/04/16 07:14:30;;;;;;;21.43;11.50;;;4.50;54.50;;;;;;5030237;28;20029;-83
2021/04/16 07:16:56;;;;;;;17.93;11.50;;;4.60;54.70;;;;;;5025830;28;20018;-83
2021/04/16 07:19:26;;;;;;;17.97;9.87;;;4.70;54.10;;;;;;5023118;28;20463;-83
2021/04/16 07:22:03;;;;;;;16.53;9.80;;;4.80;54.00;;;;;;5032564;28;20030;-83
2021/04/16 07:24:29;;;;;;;18.23;11.20;;;5.10;54.00;;;;;;5025368;28;20032;-83
2021/04/16 07:26:58;;;;;;;15.80;10.20;;;5.40;53.80;;;;;;5028790;28;20033;-83
2021/04/16 07:29:42;;;;;;;16.63;10.10;;;5.70;53.60;;;;;;5042623;28;20022;-83
2021/04/16 07:32:28;;;;;;;17.07;9.37;;;6.00;53.20;;;;;;5025488;28;20029;-83
2021/04/16 07:34:56;;;;;;;14.50;8.50;;;6.30;52.70;;;;;;5030954;28;20057;-82
2021/04/16 07:37:56;;;;;;;11.43;7.27;;;6.40;52.50;;;;;;5030632;28;20045;-83
2021/04/16 07:40:29;;;;;;;11.67;7.60;;;6.70;52.00;;;;;;5029069;28;20040;-82
2021/04/16 07:42:55;;;;;;;10.47;7.30;;;6.90;51.80;;;;;;5027267;28;20121;-82
2021/04/16 07:45:33;;;;;;;10.67;6.63;;;7.10;51.40;;;;;;5018029;28;20114;-83
2021/04/16 07:48:20;;;;;;;10.10;7.20;;;7.20;50.80;;;;;;5035366;28;20033;-83
2021/04/16 07:50:52;;;;;;;12.70;7.40;;;7.40;50.40;;;;;;5016164;28;20021;-83
2021/04/16 07:53:49;;;;;;;8.68;7.00;;;7.60;50.10;;;;;;5031160;28;20049;-82
2021/04/16 07:56:15;;;;;;;11.43;6.80;;;7.80;49.30;;;;;;5009119;28;20049;-83
2021/04/16 07:58:43;;;;;;;11.90;7.73;;;8.00;49.30;;;;;;5027663;28;20501;-82
2021/04/16 08:01:31;;;;;;;10.30;6.97;;;8.00;48.70;;;;;;5030246;28;20029;-82
2021/04/16 08:04:04;;;;;;;15.10;7.70;;;8.10;48.40;;;;;;5039708;28;20052;-82
2021/04/16 08:06:32;;;;;;;11.27;6.57;;;8.20;47.80;;;;;;5032934;28;20179;-82
2021/04/16 08:08:59;;;;;;;9.57;6.93;;;8.20;47.80;;;;;;5027519;28;20021;-82
2021/04/16 08:11:33;;;;;;;17.30;6.87;;;8.30;47.90;;;;;;5030920;28;20103;-82
2021/04/16 08:14:21;;;;;;;10.53;6.93;;;8.60;47.40;;;;;;5027106;28;20389;-82
2021/04/16 08:17:02;;;;;;;10.77;6.67;;;8.80;46.90;;;;;;5021926;28;20048;-82
2021/04/16 08:19:29;;;;;;;10.67;7.33;;;9.10;46.70;;;;;;5044160;28;20038;-82
2021/04/16 08:22:30;;;;;;;9.80;6.67;;;9.20;47.20;;;;;;5031508;28;20033;-82
2021/04/16 08:25:04;;;;;;;11.83;7.17;;;9.40;46.00;;;;;;4988306;28;20041;-83
2021/04/16 08:27:55;;;;;;;17.80;7.60;;;9.60;45.80;;;;;;5032243;28;20033;-82
2021/04/16 08:30:46;;;;;;;15.83;7.40;;;9.80;45.30;;;;;;5029969;28;20449;-82
2021/04/16 08:33:40;;;;;;;12.87;7.33;;;10.00;44.90;;;;;;5028869;28;20473;-83
2021/04/16 08:36:22;;;;;;;8.83;7.00;;;10.10;44.30;;;;;;5029223;28;20033;-83
2021/04/16 08:39:26;;;;;;;9.13;6.97;;;10.30;44.30;;;;;;5022630;28;20045;-82
2021/04/16 08:42:03;;;;;;;;;;;10.40;43.90;;;;;;4991112;28;20037;-82
2021/04/16 08:44:33;;;;;;;9.10;7.37;;;10.50;44.30;;;;;;5030414;28;19916;-82
2021/04/16 08:46:59;;;;;;;9.20;6.47;;;10.60;43.90;;;;;;5029532;28;20539;-82
2021/04/16 08:49:33;;;;;;;10.10;6.77;;;10.70;43.60;;;;;;5029541;28;20054;-82
2021/04/16 08:52:19;;;;;;;14.02;6.63;;;10.80;43.10;;;;;;5040950;28;20034;-82
2021/04/16 08:54:48;;;;;;;10.57;7.20;;;10.90;42.50;;;;;;5026077;28;20037;-82
2021/04/16 08:57:13;;;;;;;9.80;7.47;;;10.80;42.40;;;;;;5031707;28;20077;-83
2021/04/16 09:00:01;;;;;;;8.40;6.87;;;11.00;42.80;;;;;;5024003;28;20029;-83
2021/04/16 09:02:36;;;;;;;10.97;7.40;;;11.30;42.00;;;;;;5033393;28;20041;-82
2021/04/16 09:05:16;;;;;;;10.00;6.93;;;11.40;42.00;;;;;;5024808;28;20029;-83
2021/04/16 09:07:45;;;;;;;10.80;6.53;;;11.50;41.50;;;;;;5027504;28;20094;-83
2021/04/16 09:10:14;;;;;;;9.80;6.33;;;11.60;41.30;;;;;;5026969;28;20038;-82
2021/04/16 09:12:39;;;;;;;9.07;6.50;;;11.70;40.50;;;;;;5029991;28;20041;-83
2021/04/16 09:15:25;;;;;;;8.93;6.03;;;11.80;40.30;;;;;;5028026;28;20033;-82
2021/04/16 09:17:51;;;;;;;7.60;6.27;;;11.90;40.00;;;;;;5027105;28;20073;-83
2021/04/16 09:20:31;;;;;;;8.93;6.20;;;12.00;40.00;;;;;;5017701;28;20682;-83
2021/04/16 09:22:57;;;;;;;9.23;6.77;;;12.00;39.70;;;;;;5016303;28;20030;-83
2021/04/16 09:25:32;;;;;;;7.47;6.57;;;12.20;39.20;;;;;;5031465;28;20533;-82
2021/04/16 09:28:22;;;;;;;8.37;6.67;;;12.30;39.40;;;;;;5027080;28;20087;-83
2021/04/16 09:30:59;;;;;;;11.27;7.23;;;12.60;39.20;;;;;;5029930;28;20136;-83
2021/04/16 09:33:44;;;;;;;7.57;5.60;;;12.70;39.00;;;;;;5026083;28;20026;-83
2021/04/16 09:36:38;;;;;;;7.63;6.53;;;12.80;39.10;;;;;;5012393;28;20069;-82
2021/04/16 09:39:35;;;;;;;7.30;6.27;;;12.90;38.50;;;;;;5013208;28;20434;-82
2021/04/16 09:42:33;;;;;;;9.03;6.70;;;13.00;38.70;;;;;;5026576;28;20497;-82
2021/04/16 09:44:59;;;;;;;9.40;7.00;;;13.00;38.70;;;;;;5029835;28;20026;-82
2021/04/16 09:47:47;;;;;;;10.03;7.20;;;13.10;38.90;;;;;;5019304;28;20117;-82
2021/04/16 09:50:24;;;;;;;9.60;6.67;;;13.30;38.60;;;;;;5011851;28;20366;-82
2021/04/16 09:53:14;;;;;;;11.83;7.07;;;13.40;38.60;;;;;;5014037;28;20073;-83
2021/04/16 09:55:58;;;;;;;10.47;7.93;;;13.50;38.40;;;;;;5025693;28;20064;-83
2021/04/16 09:58:39;;;;;;;9.03;7.03;;;13.40;37.30;;;;;;5029808;28;20048;-82
2021/04/16 10:01:10;;;;;;;11.40;7.07;;;13.00;37.60;;;;;;5028835;28;20036;-83
2021/04/16 10:03:42;;;;;;;9.97;7.63;;;13.20;37.90;;;;;;5030655;28;20866;-82
2021/04/16 10:06:28;;;;;;;9.25;7.68;;;13.40;37.50;;;;;;5028525;28;20496;-82
2021/04/16 10:09:15;;;;;;;8.73;7.83;;;13.40;37.20;;;;;;5025510;28;20032;-83
2021/04/16 10:12:14;;;;;;;11.53;8.03;;;13.60;36.10;;;;;;5027619;28;20499;-82
2021/04/16 10:14:40;;;;;;;11.20;8.03;;;13.60;36.60;;;;;;5020376;28;20060;-82
2021/04/16 10:17:15;;;;;;;12.70;9.63;;;13.50;36.20;;;;;;5022045;28;20113;-82
2021/04/16 10:20:07;;;;;;;10.20;7.73;;;13.40;36.00;;;;;;5025017;28;20454;-82
2021/04/16 10:22:36;;;;;;;9.40;7.90;;;13.20;35.80;;;;;;5018307;28;20114;-82
2021/04/16 10:29:36;;;;;;;9.35;6.97;;;13.50;36.10;;;;;;5031208;28;20060;-82
2021/04/16 12:40:57;;;;;;;5.90;4.47;;;15.20;29.90;;;;;;5023165;28;20029;-83
2021/04/16 12:43:23;;;;;;;5.70;4.23;;;15.30;30.00;;;;;;5023802;28;20124;-83
2021/04/16 12:45:55;;;;;;;9.17;5.07;;;15.30;30.00;;;;;;5029961;28;20032;-83
2021/04/16 12:48:22;;;;;;;6.53;5.25;;;15.40;30.00;;;;;;5029775;28;20030;-83
2021/04/16 12:50:48;;;;;;;6.07;4.73;;;15.30;29.90;;;;;;5023296;28;20080;-83
2021/04/16 12:53:14;;;;;;;5.83;4.83;;;15.20;29.80;;;;;;5011118;28;20091;-83
2021/04/16 12:55:40;;;;;;;7.03;4.90;;;15.20;29.80;;;;;;5042110;28;20046;-83
2021/04/16 12:58:08;;;;;;;5.97;4.50;;;15.20;29.50;;;;;;5022668;28;20558;-83
2021/04/16 13:00:41;;;;;;;8.77;4.95;;;15.10;29.50;;;;;;5023570;28;20123;-83
2021/04/16 13:03:13;;;;;;;6.63;4.93;;;15.20;29.40;;;;;;5031829;28;20030;-84
2021/04/16 13:05:40;;;;;;;7.57;5.00;;;15.30;29.20;;;;;;5025756;28;20048;-83
2021/04/16 13:08:06;;;;;;;7.53;4.30;;;15.40;29.20;;;;;;5033285;28;20021;-83
2021/04/16 13:10:33;;;;;;;6.93;5.15;;;15.50;29.40;;;;;;5031751;28;20109;-84
2021/04/16 13:12:59;;;;;;;9.43;5.13;;;15.60;29.40;;;;;;5050216;28;20396;-83
2021/04/16 13:15:25;;;;;;;6.68;4.63;;;15.60;29.50;;;;;;5024432;28;20124;-83
2021/04/16 13:17:55;;;;;;;7.65;5.80;;;15.60;29.30;;;;;;5029335;28;20036;-83
2021/04/16 13:20:23;;;;;;;10.60;5.68;;;15.50;29.10;;;;;;5029472;28;20025;-83
2021/04/16 13:22:49;;;;;;;10.37;5.63;;;15.50;29.40;;;;;;5031147;28;20399;-83
2021/04/16 13:25:19;;;;;;;10.00;5.10;;;15.50;29.30;;;;;;5030812;28;20097;-83
2021/04/16 13:27:46;;;;;;;7.45;5.43;;;15.50;29.40;;;;;;5029409;28;20389;-83
2021/04/16 13:30:15;;;;;;;4.43;4.00;;;15.50;29.10;;;;;;5011541;28;20394;-83
2021/04/16 13:32:45;;;;;;;7.85;5.20;;;15.60;29.30;;;;;;5027601;28;20025;-83
2021/04/16 13:35:15;;;;;;;8.50;5.15;;;15.70;28.90;;;;;;5028603;28;20083;-83
2021/04/16 13:37:42;;;;;;;8.87;5.50;;;15.50;28.50;;;;;;5031079;28;20029;-83
2021/04/16 13:40:09;;;;;;;8.90;5.50;;;15.40;28.80;;;;;;5029619;28;20021;-83
2021/04/16 13:42:35;;;;;;;9.03;5.00;;;15.40;28.90;;;;;;5031344;28;20397;-83
2021/04/16 13:45:01;;;;;;;7.33;4.63;;;15.40;28.90;;;;;;5032256;28;20028;-83
2021/04/16 13:47:30;;;;;;;6.15;5.13;;;15.30;28.80;;;;;;5031152;28;20026;-83
2021/04/16 13:49:59;;;;;;;6.37;4.87;;;15.40;29.10;;;;;;5035016;28;20021;-83
2021/04/16 13:52:27;;;;;;;9.27;5.53;;;15.50;29.20;;;;;;5021442;28;20044;-83
2021/04/16 13:54:53;;;;;;;8.47;5.50;;;15.40;28.90;;;;;;5020062;28;20056;-83
2021/04/16 13:57:19;;;;;;;8.40;5.20;;;15.50;29.30;;;;;;5031477;28;20394;-84
2021/04/16 13:59:46;;;;;;;7.45;5.13;;;15.60;29.40;;;;;;5047201;28;20029;-83
2021/04/16 14:02:18;;;;;;;7.77;5.40;;;15.60;29.40;;;;;;5027205;28;20034;-83
2021/04/16 14:04:45;;;;;;;8.37;5.83;;;15.50;29.20;;;;;;5030068;28;20514;-83
2021/04/16 14:07:11;;;;;;;7.53;4.70;;;15.50;29.40;;;;;;5030657;28;20021;-83
2021/04/16 14:09:38;;;;;;;9.57;5.25;;;15.50;29.50;;;;;;5030573;28;20030;-83
2021/04/16 14:12:09;;;;;;;8.57;5.73;;;15.40;29.10;;;;;;5029128;28;20025;-83
2021/04/16 14:14:35;;;;;;;8.13;5.57;;;15.30;29.30;;;;;;5029417;28;20496;-83
2021/04/16 14:17:08;;;;;;;6.40;5.43;;;15.20;29.20;;;;;;5028845;28;20432;-83
2021/04/16 14:19:40;;;;;;;;;;;15.20;29.20;;;;;;5029698;28;20030;-83
2021/04/16 14:22:09;;;;;;;5.97;5.13;;;15.10;29.20;;;;;;5029112;28;20005;-83
2021/04/16 14:24:34;;;;;;;6.17;5.13;;;15.00;29.40;;;;;;5019506;28;20421;-84
2021/04/16 14:27:00;;;;;;;6.70;5.80;;;15.00;29.60;;;;;;5018832;28;21113;-83
2021/04/16 14:29:26;;;;;;;10.77;5.97;;;14.90;29.40;;;;;;5026012;28;20045;-83
2021/04/16 14:31:52;;;;;;;7.30;6.07;;;14.90;29.40;;;;;;5029664;28;20021;-82
2021/04/16 14:34:22;;;;;;;7.83;5.80;;;14.90;29.80;;;;;;5030065;28;20115;-82
2021/04/16 14:36:48;;;;;;;9.63;5.80;;;15.00;29.90;;;;;;5031598;28;20551;-83
2021/04/16 14:39:14;;;;;;;8.10;5.90;;;15.10;29.80;;;;;;5035725;28;20087;-83
2021/04/16 14:41:40;;;;;;;10.37;6.17;;;15.00;29.80;;;;;;5032666;28;20508;-84
2021/04/16 14:44:14;;;;;;;7.03;5.53;;;15.00;29.70;;;;;;5034189;28;20096;-83
2021/04/16 14:46:41;;;;;;;7.13;5.57;;;15.00;29.80;;;;;;5035923;28;20041;-83
2021/04/16 14:49:07;;;;;;;10.07;5.40;;;15.00;29.80;;;;;;5033725;28;20076;-82
2021/04/16 14:51:32;;;;;;;7.93;5.50;;;15.00;29.90;;;;;;5033158;28;20033;-83
2021/04/16 14:54:10;;;;;;;6.67;4.90;;;15.00;29.90;;;;;;5054368;28;20072;-83
2021/04/16 14:56:36;;;;;;;7.37;5.73;;;15.10;30.00;;;;;;5023763;28;20030;-83
2021/04/16 14:59:21;;;;;;;7.93;6.10;;;15.10;30.00;;;;;;5034578;28;20033;-83
2021/04/16 15:01:49;;;;;;;7.70;6.00;;;15.00;29.90;;;;;;5030365;28;20125;-83
2021/04/16 15:04:15;;;;;;;6.17;5.57;;;15.00;30.00;;;;;;5033483;28;20037;-83
2021/04/16 15:06:40;;;;;;;8.33;5.83;;;15.00;30.00;;;;;;5014744;28;20032;-83
2021/04/16 15:09:10;;;;;;;8.00;5.57;;;14.90;30.00;;;;;;5025179;28;20546;-83
2021/04/16 15:11:45;;;;;;;8.70;6.53;;;14.90;30.00;;;;;;5033643;28;20066;-83
2021/04/16 15:14:25;;;;;;;7.33;5.90;;;14.90;30.10;;;;;;5031078;28;20095;-83
2021/04/16 15:16:51;;;;;;;8.40;6.40;;;14.70;30.10;;;;;;5033838;28;20022;-82